Time;durP1;ratioP1;P1;durP2;ratioP2;P2;SDS_P1;SDS_P2;PMS_P1;PMS_P2;Temp;Humidity;BMP_temperature;BMP_pressure;BME280_temperature;BME280_humidity;BME280_pressure;Samples;Min_cycle;Max_cycle;Signal;HPM_P1;HPM_P2
2023/03/17 00:02:09;;;;;;;6.60;4.37;;;1.30;99.90;;;;;;5094378;28;20241;-77
2023/03/17 00:04:39;;;;;;;7.93;5.87;;;1.40;99.90;;;;;;5095225;28;20449;-78
2023/03/17 00:07:10;;;;;;;8.50;5.27;;;1.40;99.90;;;;;;5095641;28;20231;-78
2023/03/17 00:09:38;;;;;;;7.30;4.47;;;1.40;99.90;;;;;;5095171;28;20664;-78
2023/03/17 00:12:10;;;;;;;7.70;4.80;;;1.30;99.90;;;;;;5094455;28;20548;-77
2023/03/17 00:14:38;;;;;;;6.50;4.70;;;1.30;99.90;;;;;;5093695;28;20313;-78
2023/03/17 00:17:09;;;;;;;5.60;4.10;;;1.30;99.90;;;;;;5094272;28;20267;-78
2023/03/17 00:19:38;;;;;;;6.00;4.57;;;1.30;99.90;;;;;;5094348;28;20662;-77
2023/03/17 00:22:15;;;;;;;6.23;4.70;;;1.30;99.90;;;;;;5094146;28;20768;-79
2023/03/17 00:24:43;;;;;;;6.97;4.27;;;1.20;99.90;;;;;;5092055;28;20468;-78
2023/03/17 00:27:14;;;;;;;5.47;4.20;;;1.30;99.90;;;;;;5094013;28;20241;-77
2023/03/17 00:29:42;;;;;;;6.03;4.20;;;1.20;99.90;;;;;;5093982;28;20451;-79
2023/03/17 00:32:17;;;;;;;5.57;4.00;;;1.20;99.90;;;;;;5093583;28;20467;-77
2023/03/17 00:34:46;;;;;;;6.63;4.23;;;1.20;99.90;;;;;;5092956;28;20765;-78
2023/03/17 00:37:15;;;;;;;6.17;4.07;;;1.20;99.90;;;;;;5093606;28;20452;-77
2023/03/17 00:39:43;;;;;;;5.17;3.93;;;1.20;99.90;;;;;;5093841;28;20445;-78
2023/03/17 00:42:11;;;;;;;8.43;3.93;;;1.20;99.90;;;;;;5093572;28;20215;-78
2023/03/17 00:44:39;;;;;;;7.03;4.30;;;1.20;99.90;;;;;;5092986;28;20461;-78
2023/03/17 00:47:10;;;;;;;7.60;4.60;;;1.20;99.90;;;;;;5093772;28;20206;-77
2023/03/17 00:49:38;;;;;;;6.20;4.10;;;1.10;99.90;;;;;;5093889;28;20195;-78
2023/03/17 00:52:09;;;;;;;5.47;4.53;;;1.10;99.90;;;;;;5093099;28;20707;-78
2023/03/17 00:54:37;;;;;;;5.83;4.00;;;1.10;99.90;;;;;;5092910;28;20571;-78
2023/03/17 00:57:05;;;;;;;6.40;4.50;;;1.10;99.90;;;;;;5093985;28;20207;-78
2023/03/17 00:59:38;;;;;;;7.07;4.37;;;1.10;99.90;;;;;;5093142;28;20782;-78
2023/03/17 01:02:06;;;;;;;6.37;4.00;;;1.00;99.90;;;;;;5091891;28;20202;-78
2023/03/17 01:04:34;;;;;;;9.73;4.43;;;1.10;99.90;;;;;;5094268;28;20214;-77
2023/03/17 01:07:04;;;;;;;6.53;4.10;;;1.00;99.90;;;;;;5093309;28;20476;-78
2023/03/17 01:09:34;;;;;;;7.37;4.27;;;1.00;99.90;;;;;;5092717;28;20265;-77
2023/03/17 01:12:02;;;;;;;6.67;4.33;;;1.00;99.90;;;;;;5073134;28;21000;-78
2023/03/17 01:14:30;;;;;;;6.30;4.03;;;1.00;99.90;;;;;;5072887;28;20213;-79
2023/03/17 01:16:58;;;;;;;7.27;3.93;;;0.90;99.90;;;;;;5072993;28;20482;-77
2023/03/17 01:19:26;;;;;;;6.97;4.37;;;0.90;99.90;;;;;;5079300;28;20457;-77
2023/03/17 01:21:55;;;;;;;7.90;4.40;;;0.90;99.90;;;;;;5093058;28;20488;-78
2023/03/17 01:24:25;;;;;;;6.13;4.03;;;0.90;99.90;;;;;;5093160;28;20946;-79
2023/03/17 01:26:54;;;;;;;5.93;4.20;;;0.90;99.90;;;;;;5092980;28;20998;-78
2023/03/17 01:29:22;;;;;;;5.83;4.20;;;0.90;99.90;;;;;;5092256;28;20556;-77
2023/03/17 01:31:51;;;;;;;7.67;4.73;;;0.80;99.90;;;;;;5092628;28;20225;-77
2023/03/17 01:34:20;;;;;;;5.53;4.00;;;0.80;99.90;;;;;;5093048;28;20268;-77
2023/03/17 01:36:49;;;;;;;5.63;4.10;;;0.70;99.90;;;;;;5092914;28;20527;-77
2023/03/17 01:39:17;;;;;;;6.57;4.53;;;0.70;99.90;;;;;;5091776;28;20468;-78
2023/03/17 01:41:48;;;;;;;10.17;4.80;;;0.70;99.90;;;;;;5093333;28;20480;-77
2023/03/17 01:44:19;;;;;;;7.43;4.97;;;0.60;99.90;;;;;;5092407;28;20460;-80
2023/03/17 01:46:48;;;;;;;6.40;4.50;;;0.60;99.90;;;;;;5092362;28;20464;-76
2023/03/17 01:49:21;;;;;;;6.23;4.70;;;0.50;99.90;;;;;;5092478;28;20688;-77
2023/03/17 01:52:01;;;;;;;7.70;4.67;;;0.50;99.90;;;;;;5092454;28;20474;-76
2023/03/17 01:54:38;;;;;;;6.23;4.30;;;0.40;99.90;;;;;;5091149;28;20958;-78
2023/03/17 01:57:12;;;;;;;8.00;4.27;;;0.40;99.90;;;;;;5092494;28;20501;-78
2023/03/17 01:59:46;;;;;;;6.63;4.23;;;0.30;99.90;;;;;;5093270;28;20431;-76
2023/03/17 02:02:19;;;;;;;7.13;4.87;;;0.20;99.90;;;;;;5093047;28;20448;-76
2023/03/17 02:04:49;;;;;;;6.03;4.37;;;0.20;99.90;;;;;;5091341;28;20465;-78
2023/03/17 02:07:18;;;;;;;5.83;4.23;;;0.10;99.90;;;;;;5092748;28;20494;-77
2023/03/17 02:09:46;;;;;;;8.07;4.97;;;0.10;99.90;;;;;;5092369;28;20464;-77
2023/03/17 02:12:15;;;;;;;7.33;4.80;;;0.10;99.90;;;;;;5091740;28;20507;-77
2023/03/17 02:14:45;;;;;;;7.17;4.70;;;0.10;99.90;;;;;;5092106;28;20444;-77
2023/03/17 02:17:14;;;;;;;7.47;4.60;;;0.10;99.90;;;;;;5092253;28;20519;-79
2023/03/17 02:19:42;;;;;;;9.43;5.03;;;0.10;99.90;;;;;;5093228;28;20555;-77
2023/03/17 02:22:11;;;;;;;8.10;4.90;;;0.10;99.90;;;;;;5091850;28;20540;-77
2023/03/17 02:24:42;;;;;;;6.13;4.53;;;0.10;99.90;;;;;;5073278;28;20454;-77
2023/03/17 02:27:15;;;;;;;8.67;4.93;;;0.10;99.90;;;;;;5072222;28;20450;-76
2023/03/17 02:29:46;;;;;;;7.17;4.70;;;0.10;99.90;;;;;;5072417;28;20456;-76
2023/03/17 02:32:16;;;;;;;6.33;4.50;;;0.10;99.90;;;;;;5084751;28;20469;-78
2023/03/17 02:34:45;;;;;;;8.40;4.47;;;0.00;99.90;;;;;;5092572;28;20260;-77
2023/03/17 02:37:15;;;;;;;6.83;4.67;;;0.00;99.90;;;;;;5092279;28;20585;-77
2023/03/17 02:39:43;;;;;;;8.73;5.13;;;0.00;99.90;;;;;;5091595;28;20467;-76
2023/03/17 02:42:13;;;;;;;8.33;5.00;;;0.00;99.90;;;;;;5071863;28;20960;-79
2023/03/17 02:44:41;;;;;;;7.97;4.70;;;0.00;99.90;;;;;;5071990;28;20458;-76
2023/03/17 02:47:09;;;;;;;7.77;5.10;;;0.00;99.90;;;;;;5071952;28;20492;-78
2023/03/17 02:49:40;;;;;;;6.27;4.77;;;-0.10;99.90;;;;;;5071806;28;20493;-79
2023/03/17 02:52:08;;;;;;;7.20;5.07;;;-0.10;99.90;;;;;;5071850;28;20446;-77
2023/03/17 02:54:38;;;;;;;8.40;5.07;;;-0.10;99.90;;;;;;5072993;28;20484;-78
2023/03/17 02:57:07;;;;;;;6.67;4.63;;;-0.20;99.90;;;;;;5095679;28;20477;-79
2023/03/17 02:59:35;;;;;;;6.80;4.80;;;-0.20;99.90;;;;;;5096111;28;20514;-76
2023/03/17 03:02:03;;;;;;;7.27;4.83;;;-0.20;99.90;;;;;;5096141;28;20456;-77
2023/03/17 03:04:31;;;;;;;7.73;4.83;;;-0.20;99.90;;;;;;5096214;28;20449;-77
2023/03/17 03:07:00;;;;;;;6.90;5.03;;;-0.20;99.90;;;;;;5095875;28;20447;-78
2023/03/17 03:09:28;;;;;;;5.93;4.50;;;-0.30;99.90;;;;;;5094650;28;20460;-77
2023/03/17 03:11:58;;;;;;;6.13;4.77;;;-0.30;99.90;;;;;;5094952;28;20484;-77
2023/03/17 03:14:26;;;;;;;6.47;4.37;;;-0.20;99.90;;;;;;5095807;28;20445;-76
2023/03/17 03:16:54;;;;;;;6.83;4.70;;;-0.20;99.90;;;;;;5094619;28;20485;-79
2023/03/17 03:19:23;;;;;;;7.70;4.70;;;-0.10;99.90;;;;;;5095590;28;20448;-77
2023/03/17 03:21:51;;;;;;;7.43;4.70;;;-0.10;99.90;;;;;;5095075;28;20886;-78
2023/03/17 03:24:19;;;;;;;7.80;4.57;;;0.00;99.90;;;;;;5095389;28;20460;-78
2023/03/17 03:26:47;;;;;;;8.90;4.17;;;0.00;99.90;;;;;;5094226;28;20941;-77
2023/03/17 03:29:16;;;;;;;7.73;4.90;;;0.00;99.90;;;;;;5095529;28;20571;-78
2023/03/17 03:31:46;;;;;;;6.47;4.10;;;0.10;99.90;;;;;;5095294;28;20556;-78
2023/03/17 03:34:15;;;;;;;6.47;4.50;;;0.10;99.90;;;;;;5095135;28;20502;-78
2023/03/17 03:36:43;;;;;;;6.97;4.40;;;0.10;99.90;;;;;;5094463;28;20521;-79
2023/03/17 03:39:12;;;;;;;8.33;4.63;;;0.10;99.90;;;;;;5095159;28;20456;-77
2023/03/17 03:41:41;;;;;;;8.57;4.57;;;0.10;99.90;;;;;;5095003;28;20503;-79
2023/03/17 03:44:09;;;;;;;7.63;4.47;;;0.10;99.90;;;;;;5094743;28;20896;-77
2023/03/17 03:46:39;;;;;;;9.50;4.80;;;0.10;99.90;;;;;;5094394;28;20471;-77
2023/03/17 03:49:09;;;;;;;6.30;4.43;;;0.10;99.90;;;;;;5094616;28;20452;-77
2023/03/17 03:51:37;;;;;;;6.20;4.40;;;0.00;99.90;;;;;;5094581;28;20448;-78
2023/03/17 03:54:06;;;;;;;7.37;4.67;;;0.00;99.90;;;;;;5094710;28;20539;-77
2023/03/17 03:56:34;;;;;;;9.27;4.93;;;0.00;99.90;;;;;;5094002;28;20593;-78
2023/03/17 03:59:02;;;;;;;7.47;4.93;;;0.00;99.90;;;;;;5095030;28;20536;-79
2023/03/17 04:01:30;;;;;;;6.30;4.47;;;0.00;99.90;;;;;;5094881;28;20860;-77
2023/03/17 04:04:00;;;;;;;8.47;4.43;;;0.10;99.90;;;;;;5094059;28;20495;-79
2023/03/17 04:06:28;;;;;;;7.13;4.57;;;0.00;99.90;;;;;;5097314;28;20445;-76
2023/03/17 04:08:57;;;;;;;7.13;4.73;;;0.00;99.90;;;;;;5095569;28;20539;-76
2023/03/17 04:11:26;;;;;;;7.17;4.27;;;0.00;99.90;;;;;;5094021;28;20488;-79
2023/03/17 04:13:56;;;;;;;7.07;4.30;;;0.00;99.90;;;;;;5094802;28;20540;-77
2023/03/17 04:16:25;;;;;;;8.10;4.50;;;0.00;99.90;;;;;;5094125;28;20560;-78
2023/03/17 04:18:53;;;;;;;7.33;4.60;;;-0.10;99.90;;;;;;5094818;28;20441;-77
2023/03/17 04:21:26;;;;;;;6.27;4.37;;;-0.10;99.90;;;;;;5093948;28;20465;-78
2023/03/17 04:23:54;;;;;;;7.83;4.60;;;-0.10;99.90;;;;;;5094399;28;20443;-79
2023/03/17 04:26:23;;;;;;;7.27;5.00;;;-0.20;99.90;;;;;;5094085;28;20441;-78
2023/03/17 04:28:51;;;;;;;8.10;4.63;;;-0.20;99.90;;;;;;5094340;28;20463;-77
2023/03/17 04:31:19;;;;;;;6.73;4.77;;;-0.10;99.90;;;;;;5093238;28;20973;-77
2023/03/17 04:33:48;;;;;;;8.10;4.70;;;-0.10;99.90;;;;;;5093444;28;20518;-78
2023/03/17 04:36:19;;;;;;;9.43;4.80;;;0.00;99.90;;;;;;5093850;28;20536;-77
2023/03/17 04:38:48;;;;;;;9.67;4.50;;;0.10;99.90;;;;;;5092768;28;21027;-76
2023/03/17 04:41:17;;;;;;;6.57;4.23;;;0.10;99.90;;;;;;5094081;28;20445;-78
2023/03/17 04:43:45;;;;;;;9.20;5.00;;;0.10;99.90;;;;;;5093703;28;20976;-79
2023/03/17 04:46:13;;;;;;;7.20;4.70;;;0.20;99.90;;;;;;5093736;28;20449;-77
2023/03/17 04:48:42;;;;;;;6.80;4.70;;;0.20;99.90;;;;;;5092835;28;20465;-78
2023/03/17 04:51:11;;;;;;;5.37;4.10;;;0.30;99.90;;;;;;5093843;28;20298;-77
2023/03/17 04:53:39;;;;;;;8.00;5.20;;;0.20;99.90;;;;;;5093994;28;20213;-77
2023/03/17 04:56:09;;;;;;;8.00;4.83;;;0.30;99.90;;;;;;5094270;28;20445;-77
2023/03/17 04:58:37;;;;;;;9.20;4.77;;;0.30;99.90;;;;;;5093120;28;20317;-78
2023/03/17 05:01:07;;;;;;;6.03;4.30;;;0.30;99.90;;;;;;5093797;28;20441;-78
2023/03/17 05:03:35;;;;;;;9.30;4.93;;;0.40;99.90;;;;;;5093516;28;20548;-77
2023/03/17 05:06:04;;;;;;;6.83;4.37;;;0.40;99.90;;;;;;5092496;28;20500;-77
2023/03/17 05:08:34;;;;;;;6.13;4.23;;;0.40;99.90;;;;;;5093813;28;20206;-77
2023/03/17 05:11:02;;;;;;;7.63;4.30;;;0.40;99.90;;;;;;5093612;28;20449;-77
2023/03/17 05:13:32;;;;;;;8.10;4.60;;;0.40;99.90;;;;;;5093237;28;20539;-77
2023/03/17 05:16:00;;;;;;;9.17;4.67;;;0.40;99.90;;;;;;5091971;28;20555;-76
2023/03/17 05:18:28;;;;;;;8.43;4.40;;;0.40;99.90;;;;;;5091955;28;20986;-77
2023/03/17 05:20:56;;;;;;;9.63;4.77;;;0.40;99.90;;;;;;5093119;28;20207;-77
2023/03/17 05:23:25;;;;;;;7.47;4.07;;;0.40;99.90;;;;;;5092539;28;20445;-76
2023/03/17 05:25:53;;;;;;;7.53;4.77;;;0.40;99.90;;;;;;5091996;28;20496;-78
2023/03/17 05:28:22;;;;;;;9.37;4.67;;;0.40;99.90;;;;;;5092872;28;20465;-77
2023/03/17 05:30:51;;;;;;;10.17;4.93;;;0.40;99.90;;;;;;5093073;28;20453;-77
2023/03/17 05:33:20;;;;;;;8.77;4.07;;;0.40;99.90;;;;;;5092126;28;20303;-78
2023/03/17 05:35:49;;;;;;;7.00;4.50;;;0.40;99.90;;;;;;5092736;28;20467;-76
2023/03/17 05:38:17;;;;;;;7.83;4.83;;;0.30;99.90;;;;;;5092833;28;20481;-78
2023/03/17 05:40:47;;;;;;;9.77;5.00;;;0.30;99.90;;;;;;5092541;28;20640;-77
2023/03/17 05:43:15;;;;;;;6.37;4.47;;;0.30;99.90;;;;;;5091875;28;20503;-79
2023/03/17 05:45:43;;;;;;;7.40;4.63;;;0.30;99.90;;;;;;5092476;28;20552;-78
2023/03/17 05:48:13;;;;;;;6.10;4.30;;;0.30;99.90;;;;;;5092778;28;20457;-78
2023/03/17 05:50:42;;;;;;;8.40;4.50;;;0.30;99.90;;;;;;5092778;28;20448;-78
2023/03/17 05:53:10;;;;;;;7.70;4.90;;;0.30;99.90;;;;;;5091136;28;20468;-77
2023/03/17 05:55:39;;;;;;;10.63;4.87;;;0.40;99.90;;;;;;5092424;28;21026;-78
2023/03/17 05:58:08;;;;;;;7.37;4.03;;;0.40;99.90;;;;;;5092428;28;20480;-77
2023/03/17 06:00:36;;;;;;;6.50;4.57;;;0.50;99.90;;;;;;5091345;28;20934;-78
2023/03/17 06:03:06;;;;;;;7.33;4.37;;;0.60;99.90;;;;;;5092434;28;20506;-78
2023/03/17 06:05:36;;;;;;;9.20;4.50;;;0.60;99.90;;;;;;5092814;28;20229;-78
2023/03/17 06:08:05;;;;;;;7.37;4.80;;;0.70;99.90;;;;;;5091766;28;20297;-78
2023/03/17 06:10:33;;;;;;;6.00;4.20;;;0.80;99.90;;;;;;5092418;28;20989;-77
2023/03/17 06:13:03;;;;;;;7.33;4.63;;;0.90;99.90;;;;;;5093146;28;20480;-77
2023/03/17 06:15:32;;;;;;;6.40;4.50;;;1.10;99.90;;;;;;5092960;28;20215;-77
2023/03/17 06:18:01;;;;;;;6.73;4.17;;;1.10;99.90;;;;;;5091813;28;20572;-77
2023/03/17 06:20:30;;;;;;;7.37;4.40;;;1.10;99.90;;;;;;5092886;28;20553;-76
2023/03/17 06:22:59;;;;;;;8.33;4.33;;;1.20;99.90;;;;;;5092125;28;20207;-79
2023/03/17 06:25:33;;;;;;;5.53;4.07;;;1.30;99.90;;;;;;5091426;28;20551;-79
2023/03/17 06:28:02;;;;;;;5.80;3.93;;;1.40;99.90;;;;;;5092437;28;20711;-77
2023/03/17 06:30:32;;;;;;;8.03;4.30;;;1.60;99.90;;;;;;5092337;28;20206;-77
2023/03/17 06:33:01;;;;;;;7.40;4.00;;;1.60;99.90;;;;;;5092432;28;20214;-78
2023/03/17 06:35:29;;;;;;;6.47;4.10;;;1.70;99.90;;;;;;5091842;28;20203;-77
2023/03/17 06:38:02;;;;;;;6.27;4.17;;;1.60;99.90;;;;;;5091532;28;20616;-76
2023/03/17 06:40:32;;;;;;;8.17;4.47;;;1.80;99.90;;;;;;5091933;28;20539;-76
2023/03/17 06:43:01;;;;;;;7.33;4.60;;;1.80;99.90;;;;;;5091290;28;20221;-79
2023/03/17 06:45:31;;;;;;;8.40;4.47;;;1.90;99.90;;;;;;5096519;28;20207;-76
2023/03/17 06:48:00;;;;;;;9.30;4.50;;;2.00;99.90;;;;;;5099319;28;20207;-78
2023/03/17 06:50:29;;;;;;;7.83;4.07;;;2.10;99.90;;;;;;5097545;28;20557;-78
2023/03/17 06:52:57;;;;;;;6.23;4.57;;;2.10;99.90;;;;;;5095660;28;20217;-77
2023/03/17 06:55:27;;;;;;;7.00;4.53;;;2.30;99.90;;;;;;5096584;28;20278;-75
2023/03/17 06:57:57;;;;;;;8.00;4.23;;;2.40;99.90;;;;;;5096273;28;20218;-77
2023/03/17 07:00:27;;;;;;;6.77;4.40;;;2.50;99.90;;;;;;5093809;28;20293;-77
2023/03/17 07:02:56;;;;;;;7.17;4.03;;;2.50;99.90;;;;;;5093693;28;20218;-76
2023/03/17 07:05:25;;;;;;;6.37;4.23;;;2.40;99.90;;;;;;5093744;28;20210;-77
2023/03/17 07:07:53;;;;;;;8.87;5.03;;;2.50;99.90;;;;;;5094048;28;20199;-76
2023/03/17 07:10:23;;;;;;;7.87;4.40;;;2.50;99.90;;;;;;5094429;28;20222;-77
2023/03/17 07:12:53;;;;;;;6.33;4.20;;;2.40;99.90;;;;;;5092647;28;20223;-77
2023/03/17 07:15:22;;;;;;;7.43;4.13;;;2.60;99.90;;;;;;5094055;28;20202;-79
2023/03/17 07:17:51;;;;;;;6.53;4.20;;;2.70;99.90;;;;;;5093965;28;20700;-77
2023/03/17 07:20:20;;;;;;;7.60;4.20;;;2.70;99.90;;;;;;5093873;28;20211;-78
2023/03/17 07:22:50;;;;;;;6.50;4.00;;;2.80;99.90;;;;;;5094466;28;20726;-76
2023/03/17 07:25:19;;;;;;;6.73;3.87;;;3.20;99.90;;;;;;5094408;28;20214;-75
2023/03/17 07:27:47;;;;;;;5.57;3.80;;;3.60;99.90;;;;;;5094364;28;20219;-78
2023/03/17 07:30:18;;;;;;;5.13;3.70;;;4.50;99.90;;;;;;5093726;28;20309;-78
2023/03/17 07:32:48;;;;;;;4.33;3.17;;;5.80;99.90;;;;;;5094812;28;20303;-76
2023/03/17 07:35:16;;;;;;;6.00;3.13;;;6.60;99.90;;;;;;5096356;28;20726;-76
2023/03/17 07:37:46;;;;;;;4.93;3.23;;;7.20;99.90;;;;;;5094315;28;20203;-77
2023/03/17 07:40:17;;;;;;;4.30;3.20;;;7.90;99.90;;;;;;5095684;28;20290;-76
2023/03/17 07:42:45;;;;;;;6.43;3.17;;;8.40;99.90;;;;;;5097592;28;20218;-76
2023/03/17 07:45:14;;;;;;;5.07;3.30;;;9.40;99.20;;;;;;5099202;28;20488;-77
2023/03/17 07:47:45;;;;;;;6.40;3.30;;;9.90;95.50;;;;;;5099404;28;20215;-78
2023/03/17 07:50:17;;;;;;;5.97;3.20;;;9.40;97.30;;;;;;5100919;28;20218;-76
2023/03/17 07:52:46;;;;;;;4.97;2.90;;;9.80;96.70;;;;;;5098962;28;20229;-78
2023/03/17 07:55:15;;;;;;;5.73;2.70;;;10.60;94.00;;;;;;5099985;28;20282;-76
2023/03/17 07:57:43;;;;;;;6.57;2.90;;;12.10;91.20;;;;;;5097783;28;20207;-77
2023/03/17 08:00:13;;;;;;;3.83;2.80;;;12.60;84.90;;;;;;5098230;28;20233;-75
2023/03/17 08:02:42;;;;;;;5.27;2.97;;;12.50;82.70;;;;;;5099078;28;20209;-77
2023/03/17 08:05:12;;;;;;;5.60;3.23;;;11.60;83.70;;;;;;5099494;28;20808;-77
2023/03/17 08:07:41;;;;;;;4.87;3.23;;;12.70;81.20;;;;;;5097415;28;20247;-76
2023/03/17 08:10:12;;;;;;;4.67;2.90;;;13.50;78.40;;;;;;5096597;28;20214;-77
2023/03/17 08:12:41;;;;;;;6.13;3.00;;;14.50;75.80;;;;;;5098078;28;20198;-76
2023/03/17 08:15:10;;;;;;;4.00;2.70;;;15.40;72.40;;;;;;5097872;28;20238;-77
2023/03/17 08:17:39;;;;;;;5.53;2.60;;;17.00;66.80;;;;;;5098066;28;20286;-76
2023/03/17 08:20:08;;;;;;;3.97;2.73;;;17.40;62.30;;;;;;5097293;28;20266;-75
2023/03/17 08:22:42;;;;;;;4.67;2.80;;;17.60;57.70;;;;;;5096868;28;20210;-76
2023/03/17 08:25:11;;;;;;;3.70;2.50;;;17.30;58.60;;;;;;5077970;28;20607;-76
2023/03/17 08:27:41;;;;;;;3.53;2.47;;;18.10;57.20;;;;;;5075795;28;20295;-77
2023/03/17 08:30:11;;;;;;;3.65;2.65;;;18.10;56.30;;;;;;5076393;28;20663;-76
2023/03/17 08:32:39;;;;;;;4.83;2.80;;;16.30;56.10;;;;;;5093426;28;20237;-78
2023/03/17 08:35:12;;;;;;;6.53;2.83;;;16.10;58.50;;;;;;5096397;28;20203;-75
2023/03/17 08:37:43;;;;;;;3.67;2.80;;;15.70;59.30;;;;;;5096083;28;20234;-75
2023/03/17 08:40:15;;;;;;;3.13;2.40;;;16.10;59.80;;;;;;5095505;28;20229;-77
2023/03/17 08:42:44;;;;;;;3.30;2.60;;;17.20;58.00;;;;;;5095587;28;20222;-78
2023/03/17 08:45:15;;;;;;;4.47;2.90;;;16.60;59.10;;;;;;5095280;28;20210;-77
2023/03/17 08:47:43;;;;;;;3.38;2.75;;;17.00;58.70;;;;;;5087232;28;20223;-78
2023/03/17 08:50:18;;;;;;;3.33;2.47;;;18.10;56.80;;;;;;5076625;28;20215;-77
2023/03/17 08:52:48;;;;;;;5.07;2.67;;;17.00;57.20;;;;;;5076609;28;20582;-75
2023/03/17 08:55:18;;;;;;;4.68;2.60;;;17.60;57.20;;;;;;5076127;28;20241;-75
2023/03/17 08:57:47;;;;;;;6.25;2.70;;;18.00;55.60;;;;;;5093141;28;20207;-75
2023/03/17 09:00:19;;;;;;;6.82;2.72;;;18.60;55.60;;;;;;5097995;28;20226;-76
2023/03/17 09:02:48;;;;;;;4.47;2.60;;;19.40;55.70;;;;;;5096562;28;20302;-75
2023/03/17 09:05:18;;;;;;;5.68;2.42;;;19.90;55.10;;;;;;5096843;28;20242;-79
2023/03/17 09:07:49;;;;;;;3.22;2.35;;;18.20;54.80;;;;;;5097160;28;20325;-76
2023/03/17 09:10:22;;;;;;;3.63;2.57;;;16.70;56.30;;;;;;5096505;28;20237;-77
2023/03/17 09:12:52;;;;;;;6.82;2.88;;;17.30;58.50;;;;;;5096989;28;20206;-76
2023/03/17 09:15:20;;;;;;;3.65;2.75;;;17.60;57.30;;;;;;5096768;28;20210;-76
2023/03/17 09:17:52;;;;;;;5.65;2.78;;;18.30;56.70;;;;;;5097344;28;20207;-76
2023/03/17 09:20:21;;;;;;;3.45;2.38;;;18.80;57.10;;;;;;5096941;28;20247;-77
2023/03/17 09:22:53;;;;;;;5.50;2.83;;;20.40;55.80;;;;;;5095562;28;20211;-77
2023/03/17 09:25:21;;;;;;;4.30;3.05;;;19.10;54.40;;;;;;5096625;28;20668;-75
2023/03/17 09:27:50;;;;;;;5.10;2.70;;;18.80;56.20;;;;;;5095616;28;20234;-75
2023/03/17 09:30:19;;;;;;;3.65;2.67;;;18.30;56.80;;;;;;5095029;28;20222;-76
2023/03/17 09:32:47;;;;;;;5.88;2.90;;;20.70;55.40;;;;;;5093664;28;20266;-76
2023/03/17 09:35:16;;;;;;;5.90;2.80;;;19.60;53.90;;;;;;5095055;28;20209;-77
2023/03/17 09:37:45;;;;;;;4.13;2.50;;;18.70;56.30;;;;;;5095128;28;20206;-76
2023/03/17 09:40:19;;;;;;;5.20;2.65;;;20.50;56.80;;;;;;5094560;28;20249;-74
2023/03/17 09:42:58;;;;;;;5.70;2.67;;;21.70;53.20;;;;;;5093687;28;20703;-78
2023/03/17 09:45:33;;;;;;;5.35;3.67;;;22.10;53.60;;;;;;5094418;28;20202;-76
2023/03/17 09:48:23;;;;;;;5.65;2.88;;;20.60;52.10;;;;;;5094591;28;20214;-75
2023/03/17 09:50:57;;;;;;;4.53;2.67;;;21.10;53.30;;;;;;5084679;28;20233;-77
2023/03/17 09:53:32;;;;;;;5.70;2.40;;;21.90;51.80;;;;;;5093785;28;20199;-76
2023/03/17 09:56:07;;;;;;;4.72;2.80;;;22.10;49.80;;;;;;5093895;28;20186;-76
2023/03/17 09:58:37;;;;;;;3.65;2.47;;;20.90;51.60;;;;;;5093994;28;20270;-77
2023/03/17 10:01:11;;;;;;;4.85;2.38;;;21.90;51.10;;;;;;5094679;28;20206;-76
2023/03/17 10:03:40;;;;;;;4.25;2.60;;;22.40;49.20;;;;;;5094089;28;20248;-77
2023/03/17 10:06:24;;;;;;;7.25;2.78;;;21.50;50.10;;;;;;5093755;28;20252;-76
2023/03/17 10:08:57;;;;;;;5.82;2.40;;;22.30;50.50;;;;;;5094351;28;20191;-76
2023/03/17 10:11:39;;;;;;;3.58;2.33;;;22.00;50.70;;;;;;5094625;28;20227;-78
2023/03/17 10:14:22;;;;;;;4.70;2.50;;;20.90;51.60;;;;;;5093277;28;20240;-76
2023/03/17 10:16:55;;;;;;;4.30;2.78;;;21.00;51.70;;;;;;5094731;28;20254;-76
2023/03/17 10:19:29;;;;;;;3.30;2.30;;;22.00;52.50;;;;;;5093974;28;20203;-76
2023/03/17 10:22:01;;;;;;;4.03;2.58;;;21.80;51.20;;;;;;5093300;28;20227;-77
2023/03/17 10:24:31;;;;;;;4.15;2.78;;;22.50;50.70;;;;;;5094098;28;20219;-75
2023/03/17 10:27:05;;;;;;;4.90;2.45;;;21.30;52.30;;;;;;5094111;28;20305;-76
2023/03/17 10:29:33;;;;;;;3.50;2.45;;;21.70;52.00;;;;;;5094088;28;20214;-76
2023/03/17 10:32:03;;;;;;;4.85;2.40;;;21.60;51.10;;;;;;5074809;28;20596;-76
2023/03/17 10:34:33;;;;;;;2.95;2.17;;;21.30;51.70;;;;;;5073949;28;20345;-77
2023/03/17 10:37:08;;;;;;;4.90;2.35;;;22.20;50.80;;;;;;5073840;28;20250;-77
2023/03/17 10:39:45;;;;;;;3.30;2.50;;;22.60;50.20;;;;;;5084547;28;20210;-74
2023/03/17 10:42:23;;;;;;;4.20;2.30;;;22.50;50.70;;;;;;5094451;28;20579;-75
2023/03/17 10:44:55;;;;;;;4.50;2.30;;;22.30;50.60;;;;;;5093211;28;20199;-76
2023/03/17 10:47:30;;;;;;;3.83;2.40;;;22.60;49.40;;;;;;5095157;28;20206;-76
2023/03/17 10:50:04;;;;;;;3.00;2.15;;;22.20;49.00;;;;;;5094404;28;20214;-77
2023/03/17 10:52:39;;;;;;;3.03;2.10;;;22.60;50.80;;;;;;5094205;28;20217;-78
2023/03/17 10:55:13;;;;;;;2.67;2.22;;;22.30;49.90;;;;;;5095545;28;20290;-76
2023/03/17 10:57:51;;;;;;;2.72;1.88;;;22.10;49.60;;;;;;5093949;28;20199;-77
2023/03/17 11:00:22;;;;;;;4.65;2.40;;;22.40;49.90;;;;;;5095172;28;20209;-78
2023/03/17 11:02:56;;;;;;;2.35;1.90;;;22.20;51.40;;;;;;5094255;28;20199;-76
2023/03/17 11:05:27;;;;;;;3.03;2.20;;;22.00;50.30;;;;;;5094519;28;20317;-75
2023/03/17 11:08:09;;;;;;;3.95;2.15;;;20.90;50.80;;;;;;5095094;28;20223;-77
2023/03/17 11:10:39;;;;;;;2.90;1.98;;;20.80;51.40;;;;;;5094194;28;20231;-75
2023/03/17 11:13:16;;;;;;;2.33;1.92;;;20.80;51.60;;;;;;5093502;28;20297;-76
2023/03/17 11:15:51;;;;;;;3.90;1.97;;;20.60;52.20;;;;;;5093573;28;20209;-78
2023/03/17 11:18:25;;;;;;;3.90;2.13;;;21.50;50.80;;;;;;5097846;28;20676;-78
2023/03/17 11:20:59;;;;;;;3.85;2.20;;;21.60;52.60;;;;;;5097322;28;20258;-76
2023/03/17 11:23:46;;;;;;;2.08;1.65;;;22.60;49.20;;;;;;5096662;28;20215;-77
2023/03/17 11:26:42;;;;;;;3.58;1.98;;;22.40;49.70;;;;;;5098104;28;20301;-77
2023/03/17 11:29:35;;;;;;;4.53;2.05;;;22.30;49.40;;;;;;5097812;28;20221;-75
2023/03/17 11:32:18;;;;;;;8.20;1.90;;;21.80;49.60;;;;;;5096051;28;20215;-76
2023/03/17 11:35:03;;;;;;;3.45;2.10;;;21.50;50.00;;;;;;5097068;28;20210;-76
2023/03/17 11:37:48;;;;;;;3.47;2.10;;;21.50;50.30;;;;;;5097110;28;20641;-77
2023/03/17 11:40:22;;;;;;;2.67;2.00;;;21.30;50.70;;;;;;5096976;28;20215;-77
2023/03/17 11:43:02;;;;;;;2.50;2.27;;;20.20;50.30;;;;;;5097405;28;20302;-75
2023/03/17 11:45:42;;;;;;;5.27;2.07;;;20.30;51.30;;;;;;5096967;28;20264;-77
2023/03/17 11:48:30;;;;;;;2.40;1.87;;;20.10;52.50;;;;;;5097098;28;20191;-75
2023/03/17 11:51:08;;;;;;;2.87;2.30;;;20.10;53.50;;;;;;5096205;28;20296;-77
2023/03/17 11:53:55;;;;;;;4.47;2.30;;;20.10;53.70;;;;;;5097524;28;20191;-75
2023/03/17 11:56:35;;;;;;;2.63;2.33;;;19.80;53.30;;;;;;5098493;28;20214;-78
2023/03/17 11:59:11;;;;;;;4.07;2.40;;;19.70;54.50;;;;;;5097979;28;20243;-76
2023/03/17 12:01:50;;;;;;;4.37;2.10;;;19.10;56.40;;;;;;5097168;28;20218;-76
2023/03/17 12:04:23;;;;;;;4.70;2.70;;;19.10;57.10;;;;;;5096961;28;20202;-76
2023/03/17 12:07:00;;;;;;;4.70;2.80;;;18.60;57.60;;;;;;5096142;28;20610;-76
2023/03/17 12:09:34;;;;;;;3.47;2.43;;;18.70;57.80;;;;;;5097870;28;20191;-75
2023/03/17 12:12:05;;;;;;;4.90;2.50;;;18.10;57.40;;;;;;5097574;28;20228;-77
2023/03/17 12:14:38;;;;;;;4.07;2.80;;;18.00;58.60;;;;;;5099096;28;20623;-78
2023/03/17 12:17:14;;;;;;;3.73;2.90;;;17.20;59.30;;;;;;5097535;28;20661;-77
2023/03/17 12:20:06;;;;;;;4.50;2.37;;;16.90;60.70;;;;;;5098528;28;20194;-77
2023/03/17 12:22:39;;;;;;;4.13;2.67;;;16.40;62.70;;;;;;5097788;28;20199;-77
2023/03/17 12:25:15;;;;;;;3.83;2.30;;;16.50;63.40;;;;;;5096915;28;20214;-76
2023/03/17 12:27:52;;;;;;;2.60;2.17;;;16.80;63.40;;;;;;5096005;28;20231;-77
2023/03/17 12:30:29;;;;;;;4.60;2.57;;;17.10;63.90;;;;;;5095752;28;20206;-77
2023/03/17 12:33:10;;;;;;;4.83;2.40;;;16.70;63.00;;;;;;5094042;28;20234;-76
2023/03/17 12:35:39;;;;;;;4.17;2.60;;;17.10;63.50;;;;;;5096627;28;20194;-76
2023/03/17 12:38:12;;;;;;;3.63;2.60;;;16.90;62.80;;;;;;5096537;28;20207;-78
2023/03/17 12:41:02;;;;;;;4.53;2.30;;;16.90;61.90;;;;;;5095792;28;20241;-76
2023/03/17 12:43:38;;;;;;;7.00;3.23;;;16.80;62.90;;;;;;5075845;28;20640;-76
2023/03/17 12:46:35;;;;;;;6.73;2.60;;;17.00;63.50;;;;;;5075974;28;20207;-75
2023/03/17 12:49:45;;;;;;;3.73;2.83;;;17.20;64.20;;;;;;5075872;28;20207;-77
2023/03/17 12:52:22;;;;;;;4.70;2.87;;;17.10;62.50;;;;;;5074574;28;20219;-77
2023/03/17 12:54:52;;;;;;;4.27;2.73;;;16.80;64.00;;;;;;5074959;28;20191;-76
2023/03/17 12:57:23;;;;;;;6.70;2.77;;;16.80;65.40;;;;;;5075021;28;20273;-77
2023/03/17 13:00:16;;;;;;;5.23;2.97;;;16.80;65.80;;;;;;5087117;28;20206;-78
2023/03/17 13:02:49;;;;;;;4.47;2.73;;;16.80;67.30;;;;;;5095868;28;20278;-78
2023/03/17 13:05:31;;;;;;;3.20;2.50;;;17.10;67.30;;;;;;5097443;28;20274;-76
2023/03/17 13:08:04;;;;;;;5.97;3.00;;;17.30;64.30;;;;;;5096150;28;20218;-76
2023/03/17 13:10:42;;;;;;;6.17;3.00;;;17.20;64.90;;;;;;5097298;28;20206;-77
2023/03/17 13:13:24;;;;;;;4.23;2.80;;;17.10;66.20;;;;;;5097266;28;20236;-77
2023/03/17 13:15:59;;;;;;;5.00;2.97;;;16.90;66.50;;;;;;5097995;28;20187;-77